createdAt,value
2019-05-06T00:00:51.845Z,3684
2019-05-06T00:02:00.233Z,3684
2019-05-06T00:03:00.962Z,3684
2019-05-06T00:04:01.797Z,3684
2019-05-06T00:05:04.103Z,3684
2019-05-06T00:06:04.999Z,3684
2019-05-06T00:07:05.745Z,3684
2019-05-06T00:08:06.441Z,3684
2019-05-06T00:09:07.258Z,3684
2019-05-06T00:10:08.133Z,3684
2019-05-06T00:11:08.924Z,3684
2019-05-06T00:12:09.648Z,3684
2019-05-06T00:13:10.385Z,3684
2019-05-06T00:14:11.139Z,3684
2019-05-06T00:15:11.914Z,3684
2019-05-06T00:16:15.107Z,3684
2019-05-06T00:17:15.835Z,3684
2019-05-06T00:18:16.587Z,3684
2019-05-06T00:19:17.368Z,3684
2019-05-06T00:20:18.184Z,3684
2019-05-06T00:21:18.959Z,3684
2019-05-06T00:22:19.704Z,3684
2019-05-06T00:23:20.422Z,3684
2019-05-06T00:24:21.160Z,3684
2019-05-06T00:25:24.413Z,3684
2019-05-06T00:26:25.176Z,3684
2019-05-06T00:27:25.906Z,3684
2019-05-06T00:28:26.687Z,3684
2019-05-06T00:29:27.453Z,3684
2019-05-06T00:30:28.232Z,3684
2019-05-06T00:31:28.956Z,3684
2019-05-06T00:32:29.720Z,3664
2019-05-06T00:33:30.535Z,3664
2019-05-06T00:34:31.308Z,3664
2019-05-06T00:35:34.120Z,3664
2019-05-06T00:36:35.007Z,3664
2019-05-06T00:37:35.756Z,3664
2019-05-06T00:38:36.604Z,3664
2019-05-06T00:39:37.419Z,3664
2019-05-06T00:40:38.179Z,3664
2019-05-06T00:41:38.943Z,3664
2019-05-06T00:42:39.673Z,3664
2019-05-06T00:43:40.431Z,3664
2019-05-06T00:44:41.211Z,3664
2019-05-06T00:45:44.183Z,3664
2019-05-06T00:46:45.072Z,3664
2019-05-06T00:47:45.814Z,3664
2019-05-06T00:48:46.595Z,3664
2019-05-06T00:49:47.435Z,3664
2019-05-06T00:50:48.167Z,3664
2019-05-06T00:51:48.888Z,3664
2019-05-06T00:52:49.632Z,3664
2019-05-06T00:53:50.410Z,3664
2019-05-06T00:54:51.228Z,3664
2019-05-06T00:55:53.768Z,3664
2019-05-06T00:56:54.639Z,3664
2019-05-06T00:57:55.356Z,3664
2019-05-06T00:58:56.116Z,3664
2019-05-06T00:59:56.934Z,3664
2019-05-06T01:00:57.693Z,3664
2019-05-06T01:01:58.431Z,3664
2019-05-06T01:02:59.199Z,3664
2019-05-06T01:03:59.986Z,3664
2019-05-06T01:05:00.833Z,3664
2019-05-06T01:06:03.692Z,3644
2019-05-06T01:07:04.657Z,3644
2019-05-06T01:08:05.393Z,3644
2019-05-06T01:09:06.194Z,3644
2019-05-06T01:10:06.988Z,3644
2019-05-06T01:11:07.694Z,3644
2019-05-06T01:12:08.399Z,3644
2019-05-06T01:13:09.118Z,3644
2019-05-06T01:14:09.954Z,3644
2019-05-06T01:15:10.805Z,3644
2019-05-06T01:16:11.578Z,3644
2019-05-06T01:17:13.403Z,3644
2019-05-06T01:18:14.250Z,3644
2019-05-06T01:19:15.034Z,3644
2019-05-06T01:20:15.907Z,3644
2019-05-06T01:21:16.646Z,3644
2019-05-06T01:22:17.383Z,3644
2019-05-06T01:23:18.111Z,3644
2019-05-06T01:24:18.830Z,3644
2019-05-06T01:25:19.641Z,3644
2019-05-06T01:26:20.392Z,3644
2019-05-06T01:27:21.108Z,3644
2019-05-06T01:28:21.860Z,3644
2019-05-06T01:29:24.015Z,3644
2019-05-06T01:30:24.985Z,3644
2019-05-06T01:31:33.266Z,3644
2019-05-06T01:32:46.607Z,3644
2019-05-06T01:33:47.368Z,3644
2019-05-06T01:34:48.174Z,3644
2019-05-06T01:35:48.969Z,3644
2019-05-06T01:36:49.725Z,3644
2019-05-06T01:37:50.494Z,3644
2019-05-06T01:38:53.367Z,3644
2019-05-06T01:39:54.385Z,3644
2019-05-06T01:40:55.205Z,3644
2019-05-06T01:41:55.947Z,3624
2019-05-06T01:42:56.672Z,3624
2019-05-06T01:43:57.438Z,3624
2019-05-06T01:44:58.235Z,3624
2019-05-06T01:45:58.975Z,3624
2019-05-06T01:46:59.701Z,3624
2019-05-06T01:48:00.479Z,3624
2019-05-06T01:49:01.326Z,3624
2019-05-06T01:50:04.293Z,3624
2019-05-06T01:51:05.322Z,3624
2019-05-06T01:52:06.067Z,3624
2019-05-06T01:53:06.787Z,3624
2019-05-06T01:54:07.589Z,3624
2019-05-06T01:55:08.365Z,3624
2019-05-06T01:56:09.086Z,3624
2019-05-06T01:57:09.835Z,3624
2019-05-06T01:58:10.537Z,3624
2019-05-06T01:59:11.313Z,3624
2019-05-06T02:00:14.812Z,3624
2019-05-06T02:01:15.565Z,3624
2019-05-06T02:02:16.306Z,3624
2019-05-06T02:03:17.039Z,3624
2019-05-06T02:04:17.790Z,3624
2019-05-06T02:05:18.644Z,3624
2019-05-06T02:06:19.438Z,3624
2019-05-06T02:07:20.200Z,3624
2019-05-06T02:08:20.956Z,3624
2019-05-06T02:09:21.735Z,3604
2019-05-06T02:10:23.815Z,3624
2019-05-06T02:11:24.653Z,3624
2019-05-06T02:12:25.356Z,3624
2019-05-06T02:13:26.109Z,3624
2019-05-06T02:14:26.918Z,3624
2019-05-06T02:15:27.728Z,3624
2019-05-06T02:16:28.447Z,3624
2019-05-06T02:17:29.177Z,3624
2019-05-06T02:18:29.904Z,3624
2019-05-06T02:19:30.700Z,3624
2019-05-06T02:20:33.507Z,3604
2019-05-06T02:21:34.820Z,3604
2019-05-06T02:22:35.573Z,3604
2019-05-06T02:23:36.289Z,3604
2019-05-06T02:24:37.103Z,3604
2019-05-06T02:25:37.893Z,3604
2019-05-06T02:26:38.605Z,3604
2019-05-06T02:27:39.349Z,3604
2019-05-06T02:28:40.055Z,3604
2019-05-06T02:29:40.848Z,3604
2019-05-06T02:30:41.729Z,3604
2019-05-06T02:31:46.227Z,3604
2019-05-06T02:32:46.969Z,3604
2019-05-06T02:33:47.741Z,3604
2019-05-06T02:34:48.542Z,3604
2019-05-06T02:35:49.367Z,3604
2019-05-06T02:36:50.153Z,3604
2019-05-06T02:37:50.894Z,3604
2019-05-06T02:38:55.288Z,3604
2019-05-06T02:39:56.742Z,3604
2019-05-06T02:40:57.591Z,3604
2019-05-06T02:41:58.352Z,3604
2019-05-06T02:42:59.163Z,3604
2019-05-06T02:44:02.920Z,3604
2019-05-06T02:45:04.589Z,3604
2019-05-06T02:46:05.328Z,3604
2019-05-06T02:47:06.071Z,3604
2019-05-06T02:48:06.831Z,3604
2019-05-06T02:49:07.549Z,3604
2019-05-06T02:50:08.347Z,3604
2019-05-06T02:51:09.192Z,3604
2019-05-06T02:52:09.900Z,3604
2019-05-06T02:53:13.094Z,3604
2019-05-06T02:54:14.114Z,3604
2019-05-06T02:55:14.900Z,3604
2019-05-06T02:56:15.744Z,3604
2019-05-06T02:57:16.509Z,3604
2019-05-06T02:58:17.266Z,3604
2019-05-06T02:59:18.047Z,3604
2019-05-06T03:00:18.885Z,3604
2019-05-06T03:01:22.602Z,3584
2019-05-06T03:02:37.895Z,3584
2019-05-06T03:03:48.662Z,3584
2019-05-06T03:04:49.430Z,3584
2019-05-06T03:05:53.677Z,3584
2019-05-06T03:06:54.531Z,3584
2019-05-06T03:07:57.505Z,3584
2019-05-06T03:08:58.617Z,3584
2019-05-06T03:09:59.365Z,3584
2019-05-06T03:11:00.149Z,3584
2019-05-06T03:12:03.517Z,3584
2019-05-06T03:13:04.699Z,3584
2019-05-06T03:14:05.414Z,3584
2019-05-06T03:15:06.116Z,3584
2019-05-06T03:16:06.845Z,3584
2019-05-06T03:17:07.668Z,3584
2019-05-06T03:18:08.453Z,3584
2019-05-06T03:19:09.242Z,3584
2019-05-06T03:20:12.968Z,3584
2019-05-06T03:21:14.105Z,3584
2019-05-06T03:22:14.964Z,3584
2019-05-06T03:23:15.747Z,3584
2019-05-06T03:24:16.525Z,3584
2019-05-06T03:25:17.266Z,3584
2019-05-06T03:26:18.080Z,3584
2019-05-06T03:27:18.891Z,3584
2019-05-06T03:28:22.344Z,3584
2019-05-06T03:29:25.242Z,3584
2019-05-06T03:30:26.244Z,3584
2019-05-06T03:31:27.107Z,3584
2019-05-06T03:32:30.591Z,3584
2019-05-06T03:34:37.985Z,3584
2019-05-06T03:36:39.279Z,3584
2019-05-06T03:37:49.452Z,3584
2019-05-06T03:38:50.152Z,3584
2019-05-06T03:39:54.534Z,3584
2019-05-06T03:40:55.316Z,3584
2019-05-06T03:41:56.136Z,3584
2019-05-06T03:42:56.930Z,3584
2019-05-06T03:43:57.714Z,3564
2019-05-06T03:44:58.526Z,3564
2019-05-06T03:45:59.272Z,3564
2019-05-06T03:47:04.999Z,3564
2019-05-06T03:48:06.663Z,3564
2019-05-06T03:49:07.382Z,3564
2019-05-06T03:50:08.155Z,3564
2019-05-06T03:51:08.882Z,3564
2019-05-06T03:52:09.715Z,3564
2019-05-06T03:53:10.545Z,3564
2019-05-06T03:54:14.704Z,3564
2019-05-06T03:55:15.525Z,3564
2019-05-06T03:56:19.609Z,3564
2019-05-06T03:57:24.496Z,3564
2019-05-06T03:58:26.743Z,3564
2019-05-06T03:59:27.749Z,3564
2019-05-06T04:00:28.548Z,3564
2019-05-06T04:01:29.333Z,3564
2019-05-06T04:02:32.904Z,3564
2019-05-06T04:03:46.702Z,3564
2019-05-06T04:04:57.412Z,3564
2019-05-06T04:05:58.218Z,3564
2019-05-06T04:06:58.945Z,3564
2019-05-06T04:07:59.682Z,3524
2019-05-06T04:09:03.331Z,3564
2019-05-06T04:10:04.540Z,3564
2019-05-06T04:11:05.359Z,3564
2019-05-06T04:12:06.131Z,3564
2019-05-06T04:13:06.972Z,3564
2019-05-06T04:14:07.748Z,3564
2019-05-06T04:15:08.481Z,3564
2019-05-06T04:16:09.344Z,3564
2019-05-06T04:17:12.815Z,3564
2019-05-06T04:18:13.954Z,3564
2019-05-06T04:19:14.764Z,3564
2019-05-06T04:20:15.545Z,3564
2019-05-06T04:21:16.620Z,3564
2019-05-06T04:22:17.616Z,3564
2019-05-06T04:23:18.398Z,3544
2019-05-06T04:24:19.136Z,3544
2019-05-06T04:25:19.842Z,3544
2019-05-06T04:26:23.899Z,3544
2019-05-06T04:27:24.840Z,3544
2019-05-06T04:28:25.679Z,3544
2019-05-06T04:29:26.483Z,3544
2019-05-06T04:30:27.245Z,3544
2019-05-06T04:31:28.084Z,3544
2019-05-06T04:32:28.844Z,3544
2019-05-06T04:33:29.618Z,3544
2019-05-06T04:34:32.736Z,3544
2019-05-06T04:35:34.079Z,3544
2019-05-06T04:36:34.939Z,3544
2019-05-06T04:37:35.719Z,3544
2019-05-06T04:38:36.554Z,3544
2019-05-06T04:39:37.344Z,3544
2019-05-06T04:40:38.111Z,3544
2019-05-06T04:41:38.914Z,3544
2019-05-06T04:42:39.733Z,3544
2019-05-06T04:43:43.579Z,3544
2019-05-06T04:44:44.714Z,3544
2019-05-06T04:45:45.481Z,3544
2019-05-06T04:46:46.367Z,3544
2019-05-06T04:47:47.158Z,3544
2019-05-06T04:48:47.966Z,3544
2019-05-06T04:49:48.772Z,3544
2019-05-06T04:50:49.501Z,3544
2019-05-06T04:51:50.274Z,3544
2019-05-06T04:52:54.906Z,3544
2019-05-06T04:53:55.708Z,3544
2019-05-06T04:54:56.495Z,3544
2019-05-06T04:55:57.406Z,3544
2019-05-06T04:56:58.203Z,3544
2019-05-06T04:57:58.992Z,3544
2019-05-06T04:59:02.737Z,3524
2019-05-06T05:00:07.286Z,3524
2019-05-06T05:01:11.843Z,3524
2019-05-06T05:02:16.581Z,3524
2019-05-06T05:03:17.373Z,3524
2019-05-06T05:04:27.542Z,3524
2019-05-06T05:05:37.364Z,3524
2019-05-06T05:06:38.165Z,3524
2019-05-06T05:07:38.922Z,3524
2019-05-06T05:08:42.465Z,3524
2019-05-06T05:09:43.573Z,3524
2019-05-06T05:10:44.371Z,3524
2019-05-06T05:11:45.171Z,3524
2019-05-06T05:12:45.982Z,3524
2019-05-06T05:13:46.746Z,3524
2019-05-06T05:14:47.560Z,3524
2019-05-06T05:15:48.338Z,3524
2019-05-06T05:16:49.127Z,3524
2019-05-06T05:17:49.906Z,3524
2019-05-06T05:18:52.596Z,3524
2019-05-06T05:19:53.853Z,3524
2019-05-06T05:20:54.599Z,3524
2019-05-06T05:21:55.389Z,3524
2019-05-06T05:22:56.156Z,3524
2019-05-06T05:23:56.871Z,3524
2019-05-06T05:24:57.680Z,3524
2019-05-06T05:25:58.474Z,3524
2019-05-06T05:26:59.243Z,3524
2019-05-06T05:28:02.012Z,3524
2019-05-06T05:29:03.062Z,3524
2019-05-06T05:30:03.926Z,3524
2019-05-06T05:31:04.694Z,3504
2019-05-06T05:32:05.460Z,3504
2019-05-06T05:33:06.213Z,3504
2019-05-06T05:34:06.964Z,3504
2019-05-06T05:35:07.826Z,3504
2019-05-06T05:36:08.688Z,3504
2019-05-06T05:37:09.431Z,3504
2019-05-06T05:38:10.194Z,3504
2019-05-06T05:39:13.414Z,3504
2019-05-06T05:40:14.210Z,3504
2019-05-06T05:41:14.951Z,3504
2019-05-06T05:42:15.654Z,3504
2019-05-06T05:43:16.360Z,3504
2019-05-06T05:44:17.093Z,3504
2019-05-06T05:45:17.893Z,3504
2019-05-06T05:46:18.626Z,3504
2019-05-06T05:47:19.374Z,3504
2019-05-06T05:48:20.143Z,3504
2019-05-06T05:49:21.917Z,3504
2019-05-06T05:50:25.355Z,3504
2019-05-06T05:51:26.134Z,3504
2019-05-06T05:52:26.855Z,3504
2019-05-06T05:53:27.603Z,3504
2019-05-06T05:54:28.352Z,3504
2019-05-06T05:55:29.137Z,3504
2019-05-06T05:56:29.922Z,3504
2019-05-06T05:57:32.166Z,3504
2019-05-06T05:58:33.223Z,3504
2019-05-06T05:59:33.979Z,3504
2019-05-06T06:00:34.778Z,3504
2019-05-06T06:01:35.565Z,3504
2019-05-06T06:02:36.294Z,3484
2019-05-06T06:03:37.063Z,3484
2019-05-06T06:04:50.633Z,3484
2019-05-06T06:05:58.394Z,3484
2019-05-06T06:06:59.157Z,3484
2019-05-06T06:08:02.645Z,3484
2019-05-06T06:09:03.673Z,3484
2019-05-06T06:10:04.386Z,3484
2019-05-06T06:11:05.094Z,3484
2019-05-06T06:12:05.855Z,3484
2019-05-06T06:13:06.555Z,3484
2019-05-06T06:14:07.264Z,3484
2019-05-06T06:15:07.967Z,3484
2019-05-06T06:16:08.751Z,3484
2019-05-06T06:17:09.520Z,3484
2019-05-06T06:18:10.274Z,3484
2019-05-06T06:19:13.228Z,3484
2019-05-06T06:20:14.034Z,3484
2019-05-06T06:21:18.414Z,3484
2019-05-06T06:22:28.871Z,3484
2019-05-06T06:23:29.651Z,3484
2019-05-06T06:24:32.166Z,3484
2019-05-06T06:25:33.483Z,3484
2019-05-06T06:26:34.492Z,3484
2019-05-06T06:27:35.265Z,3484
2019-05-06T06:28:36.009Z,3484
2019-05-06T06:29:36.730Z,3484
2019-05-06T06:30:37.432Z,3484
2019-05-06T06:31:38.188Z,3484
2019-05-06T06:32:38.962Z,3464
2019-05-06T06:33:42.564Z,3464
2019-05-06T06:34:43.706Z,3464
2019-05-06T06:35:44.441Z,3464
2019-05-06T06:36:45.364Z,3464
2019-05-06T06:37:46.179Z,3464
2019-05-06T06:38:46.913Z,3464
2019-05-06T06:39:47.674Z,3464
2019-05-06T06:40:48.414Z,3464
2019-05-06T06:41:49.190Z,3464
2019-05-06T06:42:52.305Z,3464
2019-05-06T06:43:53.248Z,3464
2019-05-06T06:44:54.001Z,3464
2019-05-06T06:45:54.766Z,3464
2019-05-06T06:46:55.543Z,3464
2019-05-06T06:47:56.396Z,3464
2019-05-06T06:48:57.185Z,3464
2019-05-06T06:49:57.966Z,3464
2019-05-06T06:50:58.700Z,3464
2019-05-06T06:51:59.431Z,3464
2019-05-06T06:53:00.231Z,3464
2019-05-06T06:54:02.419Z,3464
2019-05-06T06:55:03.327Z,3464
2019-05-06T06:56:04.130Z,3464
2019-05-06T06:57:08.849Z,3444
2019-05-06T06:58:11.973Z,3444
2019-05-06T06:59:12.891Z,3444
2019-05-06T07:00:13.660Z,3444
2019-05-06T07:01:14.411Z,3444
2019-05-06T07:02:15.181Z,3444
2019-05-06T07:03:15.976Z,3444
2019-05-06T07:04:16.751Z,3444
2019-05-06T07:05:25.332Z,3444
2019-05-06T07:06:29.390Z,3444
2019-05-06T07:07:41.145Z,3444
2019-05-06T07:08:48.694Z,3444
2019-05-06T07:09:49.468Z,3444
2019-05-06T07:10:52.388Z,3444
2019-05-06T07:11:53.365Z,3444
2019-05-06T07:12:54.142Z,3444
2019-05-06T07:13:54.921Z,3444
2019-05-06T07:14:55.715Z,3444
2019-05-06T07:15:56.475Z,3444
2019-05-06T07:16:57.287Z,3444
2019-05-06T07:17:58.069Z,3444
2019-05-06T07:18:58.822Z,3444
2019-05-06T07:19:59.537Z,3444
2019-05-06T07:21:04.114Z,3444
2019-05-06T07:22:07.430Z,3424
2019-05-06T07:23:08.222Z,3444
2019-05-06T07:24:09.076Z,3444
2019-05-06T07:25:09.875Z,3444
2019-05-06T07:26:12.090Z,3444
2019-05-06T07:27:12.983Z,3444
2019-05-06T07:28:13.766Z,3444
2019-05-06T07:29:21.592Z,3444
2019-05-06T07:30:27.472Z,3444
2019-05-06T07:31:28.219Z,3444
2019-05-06T07:32:29.106Z,3444
2019-05-06T07:33:30.112Z,3444
2019-05-06T07:34:32.177Z,3444
2019-05-06T07:35:40.164Z,3444
2019-05-06T07:36:44.549Z,3444
2019-05-06T07:37:45.353Z,3444
2019-05-06T07:38:46.149Z,3444
2019-05-06T07:39:46.939Z,3444
2019-05-06T07:40:47.792Z,3444
2019-05-06T07:41:48.583Z,3444
2019-05-06T07:42:49.494Z,3444
2019-05-06T07:43:52.383Z,3444
2019-05-06T07:44:53.322Z,3444
2019-05-06T07:45:54.075Z,3444
2019-05-06T07:46:54.874Z,3444
2019-05-06T07:47:55.751Z,3444
2019-05-06T07:48:56.521Z,3444
2019-05-06T07:49:57.350Z,3444
2019-05-06T07:50:58.059Z,3444
2019-05-06T07:51:58.782Z,3444
2019-05-06T07:52:59.705Z,3444
2019-05-06T07:54:03.056Z,3444
2019-05-06T07:55:04.140Z,3444
2019-05-06T07:56:04.922Z,3424
2019-05-06T07:57:05.685Z,3444
2019-05-06T07:58:06.446Z,3424
2019-05-06T07:59:07.177Z,3424
2019-05-06T08:00:07.895Z,3424
2019-05-06T08:01:08.656Z,3424
2019-05-06T08:02:09.387Z,3424
2019-05-06T08:03:10.200Z,3424
2019-05-06T08:04:14.410Z,3424
2019-05-06T08:05:15.178Z,3424
2019-05-06T08:06:15.999Z,3424
2019-05-06T08:07:16.774Z,3424
2019-05-06T08:08:17.622Z,3424
2019-05-06T08:09:18.424Z,3424
2019-05-06T08:10:19.250Z,3424
2019-05-06T08:11:24.388Z,3424
2019-05-06T08:12:26.861Z,3424
2019-05-06T08:13:27.695Z,3424
2019-05-06T08:14:28.486Z,3424
2019-05-06T08:15:29.272Z,3424
2019-05-06T08:16:31.902Z,3424
2019-05-06T08:17:33.156Z,3424
2019-05-06T08:18:34.150Z,3424
2019-05-06T08:19:35.038Z,3424
2019-05-06T08:20:35.950Z,3424
2019-05-06T08:21:36.927Z,3424
2019-05-06T08:22:38.150Z,3424
2019-05-06T08:23:39.258Z,3424
2019-05-06T08:24:41.825Z,3424
2019-05-06T08:25:43.250Z,3424
2019-05-06T08:26:44.265Z,3424
2019-05-06T08:27:45.091Z,3424
2019-05-06T08:28:46.260Z,3424
2019-05-06T08:29:47.300Z,3424
2019-05-06T08:30:48.559Z,3424
2019-05-06T08:31:49.539Z,3424
2019-05-06T08:32:52.978Z,3424
2019-05-06T08:33:54.152Z,3424
2019-05-06T08:34:54.901Z,3424
2019-05-06T08:36:08.727Z,3424
2019-05-06T08:37:15.675Z,3424
2019-05-06T08:38:16.514Z,3424
2019-05-06T08:39:17.333Z,3424
2019-05-06T08:40:18.109Z,3424
2019-05-06T08:41:18.883Z,3424
2019-05-06T08:42:19.639Z,3424
2019-05-06T08:43:22.850Z,3404
2019-05-06T08:44:23.653Z,3404
2019-05-06T08:45:24.415Z,3404
2019-05-06T08:46:25.137Z,3404
2019-05-06T08:47:25.901Z,3404
2019-05-06T08:48:26.652Z,3404
2019-05-06T08:49:27.472Z,3404
2019-05-06T08:50:28.291Z,3404
2019-05-06T08:51:29.025Z,3404
2019-05-06T08:52:29.741Z,3404
2019-05-06T08:53:32.947Z,3404
2019-05-06T08:54:33.872Z,3404
2019-05-06T08:55:34.643Z,3404
2019-05-06T08:56:35.415Z,3404
2019-05-06T08:57:36.268Z,3404
2019-05-06T08:58:36.990Z,3404
2019-05-06T08:59:37.833Z,3404
2019-05-06T09:00:38.613Z,3404
2019-05-06T09:01:39.360Z,3404
2019-05-06T09:02:42.181Z,3404
2019-05-06T09:03:46.840Z,3404
2019-05-06T09:04:47.650Z,3404
2019-05-06T09:05:48.420Z,3404
2019-05-06T09:06:49.187Z,3404
2019-05-06T09:07:50.331Z,3404
2019-05-06T09:08:54.972Z,3404
2019-05-06T09:09:57.904Z,3404
2019-05-06T09:10:58.864Z,3404
2019-05-06T09:11:59.667Z,3404
2019-05-06T09:13:01.955Z,3404
2019-05-06T09:14:03.477Z,3404
2019-05-06T09:15:04.484Z,3404
2019-05-06T09:16:05.274Z,3404
2019-05-06T09:17:06.057Z,3404
2019-05-06T09:18:06.821Z,3404
2019-05-06T09:19:07.561Z,3404
2019-05-06T09:20:08.353Z,3404
2019-05-06T09:21:09.163Z,3404
2019-05-06T09:22:09.940Z,3404
2019-05-06T09:23:12.395Z,3404
2019-05-06T09:24:13.209Z,3404
2019-05-06T09:25:14.014Z,3404
2019-05-06T09:26:14.808Z,3404
2019-05-06T09:27:15.635Z,3404
2019-05-06T09:28:16.482Z,3404
2019-05-06T09:29:17.263Z,3404
2019-05-06T09:30:18.043Z,3404
2019-05-06T09:31:18.766Z,3404
2019-05-06T09:32:19.558Z,3404
2019-05-06T09:33:22.343Z,3404
2019-05-06T09:34:23.507Z,3404
2019-05-06T09:35:24.340Z,3404
2019-05-06T09:36:39.784Z,3404
2019-05-06T09:37:55.313Z,3384
2019-05-06T09:38:56.071Z,3404
2019-05-06T09:39:56.841Z,3384
2019-05-06T09:40:57.655Z,3384
2019-05-06T09:41:58.438Z,3404
2019-05-06T09:42:59.238Z,3384
2019-05-06T09:44:00.079Z,3384
2019-05-06T09:45:02.204Z,3384
2019-05-06T09:46:03.234Z,3384
2019-05-06T09:47:04.087Z,3384
2019-05-06T09:48:04.930Z,3384
2019-05-06T09:49:05.718Z,3384
2019-05-06T09:50:06.502Z,3384
2019-05-06T09:51:07.329Z,3384
2019-05-06T09:52:08.125Z,3384
2019-05-06T09:53:08.919Z,3384
2019-05-06T09:54:09.706Z,3384
2019-05-06T09:55:13.337Z,3384
2019-05-06T09:56:14.141Z,3384
2019-05-06T09:57:14.885Z,3384
2019-05-06T09:58:15.662Z,3384
2019-05-06T09:59:16.404Z,3384
2019-05-06T10:00:17.141Z,3384
2019-05-06T10:01:18.001Z,3384
2019-05-06T10:02:18.847Z,3384
2019-05-06T10:03:19.676Z,3384
2019-05-06T10:04:20.434Z,3384
2019-05-06T10:05:21.171Z,3384
2019-05-06T10:06:22.293Z,3384
2019-05-06T10:07:23.216Z,3384
2019-05-06T10:08:23.994Z,3384
2019-05-06T10:09:25.000Z,3384
2019-05-06T10:10:25.836Z,3384
2019-05-06T10:11:26.576Z,3384
2019-05-06T10:12:27.406Z,3384
2019-05-06T10:13:28.188Z,3384
2019-05-06T10:14:28.978Z,3384
2019-05-06T10:15:29.748Z,3384
2019-05-06T10:16:33.280Z,3384
2019-05-06T10:17:34.103Z,3384
2019-05-06T10:18:34.941Z,3384
2019-05-06T10:19:35.713Z,3384
2019-05-06T10:20:36.528Z,3284
2019-05-06T10:21:37.276Z,3364
2019-05-06T10:22:38.073Z,3364
2019-05-06T10:23:38.887Z,3364
2019-05-06T10:24:39.656Z,3364
2019-05-06T10:25:42.855Z,3364
2019-05-06T10:26:44.669Z,3364
2019-05-06T10:27:45.510Z,3364
2019-05-06T10:28:46.289Z,3364
2019-05-06T10:29:47.035Z,3364
2019-05-06T10:30:47.784Z,3364
2019-05-06T10:31:48.518Z,3364
2019-05-06T10:32:49.276Z,3364
2019-05-06T10:33:50.052Z,3364
2019-05-06T10:34:52.566Z,3364
2019-05-06T10:35:53.425Z,3364
2019-05-06T10:36:54.177Z,3364
2019-05-06T10:37:55.015Z,3364
2019-05-06T10:38:55.804Z,3364
2019-05-06T10:39:56.620Z,3364
2019-05-06T10:41:03.039Z,3364
2019-05-06T10:42:08.431Z,3344
2019-05-06T10:43:09.238Z,3344
2019-05-06T10:44:10.032Z,3344
2019-05-06T10:45:12.356Z,3344
2019-05-06T10:46:13.281Z,3344
2019-05-06T10:47:14.054Z,3344
2019-05-06T10:48:14.849Z,3344
2019-05-06T10:49:15.635Z,3344
2019-05-06T10:50:16.426Z,3344
2019-05-06T10:51:17.301Z,3344
2019-05-06T10:52:18.091Z,3344
2019-05-06T10:53:18.927Z,3344
2019-05-06T10:54:22.868Z,3344
2019-05-06T10:55:23.793Z,3344
2019-05-06T10:56:24.561Z,3324
2019-05-06T10:57:25.352Z,3324
2019-05-06T10:58:26.143Z,3324
2019-05-06T10:59:26.868Z,3324
2019-05-06T11:00:27.683Z,3324
2019-05-06T11:01:28.505Z,3324
2019-05-06T11:02:29.273Z,3324
2019-05-06T11:03:30.108Z,3324
2019-05-06T11:04:32.631Z,3324
2019-05-06T11:05:33.949Z,3324
2019-05-06T11:06:34.723Z,3324
2019-05-06T11:07:35.606Z,3324
2019-05-06T11:08:36.602Z,3324
2019-05-06T11:09:37.358Z,3324
2019-05-06T11:10:41.061Z,3324
2019-05-06T11:11:46.455Z,3324
2019-05-06T11:12:47.281Z,3304
2019-05-06T11:13:48.099Z,3304
2019-05-06T11:14:48.870Z,3304
2019-05-06T11:15:49.703Z,3304
2019-05-06T11:16:56.080Z,3304
2019-05-06T11:17:56.858Z,3304
2019-05-06T11:18:57.628Z,3304
2019-05-06T11:19:58.374Z,3304
2019-05-06T11:20:59.213Z,3304
2019-05-06T11:21:59.936Z,3304
2019-05-06T11:23:02.054Z,3304
2019-05-06T11:24:05.898Z,3304
2019-05-06T11:25:07.110Z,3304
2019-05-06T11:26:07.870Z,3304
2019-05-06T11:27:23.560Z,3304
2019-05-06T11:28:35.733Z,3284
2019-05-06T11:29:36.859Z,3284
2019-05-06T11:30:37.692Z,3284
2019-05-06T11:31:38.535Z,3284
2019-05-06T11:32:41.215Z,3284
2019-05-06T11:33:45.339Z,3284
2019-05-06T11:34:46.138Z,3284
2019-05-06T11:35:46.912Z,3284
2019-05-06T11:36:47.671Z,3284
2019-05-06T11:37:50.720Z,3284
2019-05-06T11:38:55.003Z,3284
2019-05-06T11:39:55.831Z,3284
2019-05-06T11:40:56.588Z,3284
2019-05-06T11:42:14.800Z,3264
2019-05-06T11:43:33.211Z,3264
2019-05-06T11:44:33.948Z,3264
2019-05-06T11:45:34.738Z,3264
2019-05-06T11:46:35.523Z,3264
2019-05-06T11:47:36.302Z,3264
2019-05-06T11:48:37.137Z,3264
2019-05-06T11:49:37.885Z,3264
2019-05-06T11:50:38.696Z,3264
2019-05-06T11:51:39.473Z,3264
2019-05-06T11:52:43.005Z,3264
2019-05-06T11:53:44.354Z,3264
2019-05-06T11:54:45.133Z,3244
2019-05-06T11:55:45.942Z,3244
2019-05-06T11:56:50.603Z,3244
2019-05-06T11:57:59.142Z,3244
2019-05-06T11:59:02.273Z,3244
2019-05-06T12:00:03.300Z,3244
2019-05-06T12:01:04.039Z,3244
2019-05-06T12:02:04.776Z,3244
2019-05-06T12:03:05.634Z,3244
2019-05-06T12:04:06.492Z,3244
2019-05-06T12:05:07.341Z,3244
2019-05-06T12:06:08.140Z,3244
2019-05-06T12:07:10.995Z,3244
2019-05-06T12:08:16.882Z,3224
2019-05-06T12:09:17.729Z,3224
2019-05-06T12:10:18.588Z,3224
2019-05-06T12:11:19.460Z,3224
2019-05-06T12:12:20.337Z,3224
2019-05-06T12:13:23.939Z,3224
2019-05-06T12:14:24.740Z,3224
2019-05-06T12:15:25.643Z,3224
2019-05-06T12:16:26.575Z,3224
2019-05-06T12:17:27.338Z,3224
2019-05-06T12:18:28.248Z,3224
2019-05-06T12:19:29.067Z,3204
2019-05-06T12:20:29.868Z,3204
2019-05-06T12:21:32.677Z,3204
2019-05-06T12:22:33.805Z,3204
2019-05-06T12:23:35.531Z,3204
2019-05-06T12:24:36.560Z,3204
2019-05-06T12:25:37.359Z,3204
2019-05-06T12:26:38.187Z,3204
2019-05-06T12:27:38.927Z,3204
2019-05-06T12:28:39.730Z,3204
2019-05-06T12:29:42.792Z,3204
2019-05-06T12:30:43.741Z,3204
2019-05-06T12:31:44.559Z,3184
2019-05-06T12:32:45.325Z,3184
2019-05-06T12:33:46.113Z,3184
2019-05-06T12:34:46.880Z,3184
2019-05-06T12:35:47.671Z,3184
2019-05-06T12:36:48.504Z,3184
2019-05-06T12:37:49.319Z,3184
2019-05-06T12:38:52.023Z,3184
2019-05-06T12:39:53.427Z,3184
2019-05-06T12:40:54.562Z,3184
2019-05-06T12:41:55.631Z,3164
2019-05-06T12:42:56.519Z,3164
2019-05-06T12:43:57.325Z,3164
2019-05-06T12:44:58.090Z,3164
2019-05-06T12:45:58.944Z,3164
2019-05-06T12:47:00.159Z,3164
2019-05-06T12:48:04.327Z,3164
2019-05-06T12:49:05.249Z,3164
2019-05-06T12:50:06.047Z,3164
2019-05-06T12:51:06.779Z,3164
2019-05-06T12:52:07.621Z,3164
2019-05-06T12:53:08.383Z,3164
2019-05-06T12:54:09.169Z,3144
2019-05-06T12:55:18.109Z,3144
2019-05-06T12:56:25.910Z,3144
2019-05-06T12:57:26.799Z,3144
2019-05-06T12:58:27.566Z,3144
2019-05-06T12:59:28.388Z,3144
2019-05-06T13:00:29.139Z,3144
2019-05-06T13:01:33.406Z,3144
2019-05-06T13:02:35.287Z,3144
2019-05-06T13:03:36.092Z,3144
2019-05-06T13:04:49.145Z,3144
2019-05-06T13:06:07.145Z,3104
2019-05-06T13:07:10.149Z,3104
2019-05-06T13:08:18.719Z,3104
2019-05-06T13:09:33.235Z,3104
2019-05-06T13:10:34.211Z,3084
2019-05-06T13:11:34.988Z,3084
2019-05-06T13:12:35.807Z,3084
2019-05-06T13:13:36.598Z,3084
2019-05-06T13:14:37.429Z,3084
2019-05-06T13:15:38.258Z,3084
2019-05-06T13:16:39.043Z,3084
2019-05-06T13:17:39.900Z,3084
2019-05-06T13:18:47.297Z,3084
2019-05-06T13:19:55.343Z,3084
2019-05-06T13:20:56.178Z,3084
2019-05-06T13:21:57.133Z,3084
2019-05-06T13:22:57.964Z,3064
2019-05-06T13:24:00.337Z,3064
2019-05-06T13:25:05.384Z,3064
2019-05-06T13:26:06.210Z,3064
2019-05-06T13:27:07.074Z,3064
2019-05-06T13:28:07.884Z,3064
2019-05-06T13:29:08.740Z,3064
2019-05-06T13:30:09.584Z,3064
2019-05-06T13:31:16.988Z,3064
2019-05-06T13:32:46.824Z,3644
2019-05-06T13:33:47.698Z,3704
2019-05-06T13:34:48.821Z,3724
2019-05-06T13:35:49.629Z,3764
2019-05-06T13:36:52.906Z,3784
2019-05-06T13:37:54.393Z,3804
2019-05-06T13:39:09.412Z,3824
2019-05-06T13:40:16.050Z,3844
2019-05-06T13:41:17.180Z,3844
2019-05-06T13:42:17.961Z,3864
2019-05-06T13:43:18.694Z,3864
2019-05-06T13:44:19.524Z,3864